Time;durP1;ratioP1;P1;durP2;ratioP2;P2;SDS_P1;SDS_P2;PMS_P1;PMS_P2;Temp;Humidity;BMP_temperature;BMP_pressure;BME280_temperature;BME280_humidity;BME280_pressure;Samples;Min_cycle;Max_cycle;Signal;HPM_P1;HPM_P2
2021/12/05 00:19:18;;;;;;;3.33;1.63;;;7.40;97.40;;;;;;945206;148;27441;-80
2021/12/05 00:24:06;;;;;;;2.30;1.50;;;7.40;97.30;;;;;;943248;148;27804;-80
2021/12/05 00:26:20;;;;;;;4.03;1.80;;;7.40;97.30;;;;;;945126;148;27336;-80
2021/12/05 00:29:09;;;;;;;3.50;1.43;;;7.40;97.20;;;;;;945438;148;27430;-80
2021/12/05 00:39:38;;;;;;;1.53;1.40;;;7.60;96.90;;;;;;942338;149;27568;-80
2021/12/05 01:02:17;;;;;;;2.47;1.50;;;7.70;96.20;;;;;;937856;150;27417;-80
2021/12/05 01:07:35;;;;;;;5.03;1.60;;;7.70;96.20;;;;;;957031;149;27372;-80
2021/12/05 01:10:02;;;;;;;3.47;1.47;;;7.70;96.20;;;;;;955985;147;27301;-80
2021/12/05 01:12:35;;;;;;;2.00;1.40;;;7.70;96.10;;;;;;931222;150;27823;-80
2021/12/05 01:17:15;;;;;;;1.83;1.60;;;7.80;96.00;;;;;;957571;147;27266;-80
2021/12/05 01:19:39;;;;;;;3.93;1.80;;;7.80;96.00;;;;;;948919;147;27386;-81
2021/12/05 01:22:06;;;;;;;3.47;1.57;;;7.80;96.00;;;;;;947899;147;27442;-80
2021/12/05 01:27:14;;;;;;;2.90;1.70;;;7.80;95.90;;;;;;954135;147;27339;-80
2021/12/05 01:29:42;;;;;;;2.80;1.60;;;7.90;95.90;;;;;;952660;150;27418;-80
2021/12/05 01:40:02;;;;;;;3.17;1.70;;;7.90;95.80;;;;;;953084;147;27445;-80
2021/12/05 01:45:30;;;;;;;3.50;2.20;;;7.90;95.80;;;;;;950478;147;27424;-80
2021/12/05 01:55:35;;;;;;;1.87;1.53;;;7.90;95.70;;;;;;948725;147;27426;-80
2021/12/05 01:57:55;;;;;;;5.57;1.90;;;8.00;95.60;;;;;;945972;147;27367;-80
2021/12/05 02:00:25;;;;;;;2.70;1.70;;;8.00;95.60;;;;;;954468;147;27323;-80
2021/12/05 02:03:09;;;;;;;3.30;1.63;;;8.00;95.60;;;;;;951877;148;27328;-80
2021/12/05 02:08:36;;;;;;;4.13;1.80;;;8.00;95.30;;;;;;954163;149;27360;-80
2021/12/05 02:10:53;;;;;;;4.17;2.10;;;8.00;95.30;;;;;;960452;147;27451;-80
2021/12/05 02:39:36;;;;;;;5.00;1.70;;;7.90;95.40;;;;;;926001;150;27403;-81
2021/12/05 02:41:54;;;;;;;4.23;1.63;;;7.90;95.30;;;;;;940631;150;27506;-80
2021/12/05 02:46:48;;;;;;;3.30;2.27;;;7.90;95.30;;;;;;954092;147;27260;-80
2021/12/05 02:49:15;;;;;;;4.13;1.80;;;7.90;95.30;;;;;;944290;148;27360;-81
2021/12/05 02:51:39;;;;;;;3.67;1.50;;;7.90;95.20;;;;;;956523;147;27435;-81
2021/12/05 02:54:12;;;;;;;2.93;1.50;;;7.90;95.50;;;;;;954137;148;27325;-81
2021/12/05 02:56:34;;;;;;;3.43;1.47;;;8.00;95.20;;;;;;950928;148;27358;-80
2021/12/05 02:59:06;;;;;;;3.93;1.73;;;8.00;95.10;;;;;;949493;147;27786;-80
2021/12/05 03:01:35;;;;;;;2.87;1.60;;;8.00;95.00;;;;;;951478;149;27442;-80
2021/12/05 03:03:55;;;;;;;4.57;1.73;;;8.00;95.00;;;;;;947636;148;27544;-80
2021/12/05 03:06:23;;;;;;;4.33;1.70;;;8.00;94.90;;;;;;956334;147;27380;-80
2021/12/05 03:08:48;;;;;;;5.63;1.63;;;8.00;94.70;;;;;;948225;149;27337;-80
2021/12/05 03:11:15;;;;;;;4.17;2.00;;;7.90;94.50;;;;;;954171;149;27337;-80
2021/12/05 03:13:41;;;;;;;2.40;1.40;;;7.90;94.30;;;;;;950188;148;27308;-80
2021/12/05 03:16:08;;;;;;;4.63;1.47;;;7.90;94.20;;;;;;954973;147;27385;-81
2021/12/05 03:18:34;;;;;;;7.20;2.67;;;7.80;94.10;;;;;;952898;147;27862;-80
2021/12/05 03:21:04;;;;;;;2.43;1.30;;;7.70;94.00;;;;;;949362;147;27618;-80
2021/12/05 03:23:28;;;;;;;2.60;1.67;;;7.70;94.00;;;;;;948462;149;27359;-80
2021/12/05 03:25:54;;;;;;;4.90;1.77;;;7.60;93.90;;;;;;949825;150;27363;-80
2021/12/05 03:28:21;;;;;;;4.43;1.40;;;7.60;93.90;;;;;;948942;147;27435;-80
2021/12/05 03:30:47;;;;;;;2.43;1.40;;;7.50;93.80;;;;;;951842;147;27897;-80
2021/12/05 03:33:14;;;;;;;2.60;1.67;;;7.40;93.80;;;;;;952768;147;27498;-80
2021/12/05 03:35:41;;;;;;;4.53;1.87;;;7.40;93.80;;;;;;951092;147;27376;-80
2021/12/05 03:38:07;;;;;;;3.33;1.80;;;7.30;93.80;;;;;;949809;147;27394;-81
2021/12/05 03:40:34;;;;;;;2.17;1.53;;;7.20;93.80;;;;;;948846;147;27429;-81
2021/12/05 03:43:00;;;;;;;3.23;1.40;;;7.20;93.90;;;;;;953463;150;27400;-81
2021/12/05 03:45:27;;;;;;;2.03;1.30;;;7.10;93.90;;;;;;957807;147;27336;-81
2021/12/05 03:47:56;;;;;;;2.10;1.23;;;7.00;93.90;;;;;;949038;148;27797;-81
2021/12/05 03:50:20;;;;;;;2.27;1.23;;;7.00;93.90;;;;;;953144;147;27284;-81
2021/12/05 03:52:47;;;;;;;3.10;1.70;;;6.90;94.00;;;;;;945433;147;27333;-80
2021/12/05 03:55:13;;;;;;;1.83;1.53;;;6.80;94.00;;;;;;952487;147;27858;-79
2021/12/05 03:57:40;;;;;;;4.60;1.67;;;6.70;94.40;;;;;;951563;150;27337;-80
2021/12/05 04:00:15;;;;;;;3.70;1.50;;;6.70;94.10;;;;;;953522;147;27362;-81
2021/12/05 04:02:42;;;;;;;2.27;1.50;;;6.60;94.20;;;;;;945715;147;27346;-81
2021/12/05 04:05:09;;;;;;;8.23;1.53;;;6.60;94.20;;;;;;943680;149;27296;-81
2021/12/05 04:07:35;;;;;;;4.47;1.80;;;6.50;94.30;;;;;;955400;147;28050;-81
2021/12/05 04:10:03;;;;;;;4.83;1.80;;;6.40;94.30;;;;;;951394;148;27421;-81
2021/12/05 04:12:28;;;;;;;2.70;1.53;;;6.40;94.40;;;;;;951096;147;27474;-81
2021/12/05 04:14:55;;;;;;;2.67;1.30;;;6.30;94.40;;;;;;951043;149;27308;-81
2021/12/05 04:17:22;;;;;;;2.97;1.53;;;6.30;94.40;;;;;;951961;147;27308;-81
2021/12/05 04:19:48;;;;;;;1.73;1.43;;;6.20;94.30;;;;;;955559;148;27786;-81
2021/12/05 04:22:15;;;;;;;2.40;1.13;;;6.10;94.30;;;;;;955156;147;27647;-81
2021/12/05 04:24:41;;;;;;;2.63;1.30;;;6.00;94.30;;;;;;954370;148;27378;-81
2021/12/05 04:27:08;;;;;;;1.80;1.30;;;6.00;94.60;;;;;;946705;147;27361;-81
2021/12/05 04:29:36;;;;;;;2.83;1.40;;;5.90;94.70;;;;;;952633;147;27311;-81
2021/12/05 04:32:01;;;;;;;2.77;1.50;;;5.80;95.00;;;;;;956980;147;27281;-81
2021/12/05 04:34:28;;;;;;;1.67;1.33;;;5.80;95.20;;;;;;949112;147;27322;-81
2021/12/05 04:36:57;;;;;;;3.00;1.63;;;5.80;95.50;;;;;;948108;148;27328;-81
2021/12/05 04:39:23;;;;;;;1.60;1.50;;;5.80;95.70;;;;;;953199;147;27350;-81
2021/12/05 04:41:50;;;;;;;3.77;1.43;;;5.80;95.90;;;;;;953890;147;27292;-81
2021/12/05 04:44:17;;;;;;;2.27;1.43;;;5.80;96.10;;;;;;951701;148;27282;-81
2021/12/05 04:46:43;;;;;;;4.73;1.90;;;5.80;96.30;;;;;;947868;147;27389;-81
2021/12/05 04:49:10;;;;;;;2.83;1.80;;;5.90;96.50;;;;;;948354;147;27408;-81
2021/12/05 04:51:39;;;;;;;4.73;1.70;;;5.90;96.70;;;;;;945378;148;27365;-81
2021/12/05 04:54:06;;;;;;;1.67;1.53;;;6.00;96.80;;;;;;949931;148;27779;-81
2021/12/05 04:56:33;;;;;;;1.93;1.53;;;6.00;96.80;;;;;;945370;148;28043;-81
2021/12/05 04:58:59;;;;;;;2.20;1.33;;;6.10;96.90;;;;;;950240;148;27657;-81
2021/12/05 05:01:26;;;;;;;5.87;1.60;;;6.20;96.90;;;;;;952750;147;27342;-80
2021/12/05 05:03:52;;;;;;;3.43;1.40;;;6.20;96.90;;;;;;948818;148;27282;-80
2021/12/05 05:06:19;;;;;;;2.73;1.50;;;6.20;96.90;;;;;;947458;148;27296;-81
2021/12/05 05:08:45;;;;;;;6.10;1.73;;;6.30;96.90;;;;;;943596;149;27868;-81
2021/12/05 05:11:12;;;;;;;4.03;2.23;;;6.40;96.80;;;;;;950554;148;27312;-79
2021/12/05 05:13:39;;;;;;;3.50;1.87;;;6.40;96.70;;;;;;950197;149;27300;-79
2021/12/05 05:16:06;;;;;;;3.67;1.60;;;6.50;96.70;;;;;;950693;150;27495;-80
2021/12/05 05:18:44;;;;;;;2.30;1.23;;;6.50;96.60;;;;;;955677;148;27287;-80
2021/12/05 05:21:14;;;;;;;3.00;1.67;;;6.60;96.50;;;;;;948737;150;27348;-80
2021/12/05 05:23:46;;;;;;;2.23;1.47;;;6.60;96.30;;;;;;946620;148;27349;-80
2021/12/05 05:50:14;;;;;;;1.97;1.20;;;6.60;96.10;;;;;;954319;147;27325;-81
2021/12/05 05:52:41;;;;;;;2.93;1.13;;;6.60;96.30;;;;;;953046;148;27308;-81
2021/12/05 05:55:08;;;;;;;3.27;1.50;;;6.60;96.40;;;;;;953889;150;28177;-81
2021/12/05 05:57:44;;;;;;;3.57;1.47;;;6.70;96.50;;;;;;950252;148;27389;-81
2021/12/05 06:00:15;;;;;;;4.00;1.40;;;6.70;96.50;;;;;;943245;150;27447;-80
2021/12/05 06:05:15;;;;;;;2.97;1.53;;;6.80;96.60;;;;;;939658;150;27326;-80
2021/12/05 06:07:45;;;;;;;3.23;1.43;;;6.90;96.60;;;;;;955054;147;27385;-81
2021/12/05 06:10:13;;;;;;;1.60;1.50;;;6.90;96.70;;;;;;952087;148;27334;-81
2021/12/05 06:12:40;;;;;;;2.00;1.17;;;7.00;96.70;;;;;;952281;150;27280;-81
2021/12/05 06:15:06;;;;;;;2.73;1.57;;;7.00;96.70;;;;;;952028;147;27286;-81
2021/12/05 06:17:33;;;;;;;1.70;1.07;;;7.00;96.60;;;;;;956838;148;27286;-81
2021/12/05 06:19:59;;;;;;;2.33;1.33;;;7.10;96.60;;;;;;941361;150;27339;-81
2021/12/05 06:22:26;;;;;;;2.87;1.70;;;7.10;96.50;;;;;;947500;149;27284;-81
2021/12/05 06:24:52;;;;;;;2.73;1.47;;;7.20;96.40;;;;;;954143;150;27332;-80
2021/12/05 06:27:19;;;;;;;4.53;1.70;;;7.20;96.30;;;;;;951649;148;27350;-80
2021/12/05 06:29:53;;;;;;;3.57;1.40;;;7.20;96.30;;;;;;953246;150;27339;-80
2021/12/05 06:36:45;;;;;;;2.90;1.33;;;7.20;96.10;;;;;;950510;149;27300;-80
2021/12/05 06:37:46;;;;;;;3.37;1.30;;;7.20;95.90;;;;;;951788;150;27319;-81
2021/12/05 06:47:57;;;;;;;2.30;1.13;;;7.10;95.70;;;;;;959686;146;27351;-80
2021/12/05 06:50:24;;;;;;;4.53;1.60;;;7.10;95.70;;;;;;950421;148;27331;-81
2021/12/05 06:52:51;;;;;;;3.97;1.60;;;7.10;95.70;;;;;;945706;151;27391;-81
2021/12/05 06:55:17;;;;;;;2.23;1.10;;;7.00;95.80;;;;;;946615;151;28117;-80
2021/12/05 06:57:44;;;;;;;2.70;1.83;;;7.00;95.90;;;;;;942875;151;27414;-80
2021/12/05 07:00:13;;;;;;;1.50;1.40;;;7.00;96.00;;;;;;948843;148;27373;-80
2021/12/05 07:02:40;;;;;;;2.07;1.40;;;7.00;96.00;;;;;;938557;148;27349;-80
2021/12/05 07:07:43;;;;;;;2.80;2.00;;;7.00;96.10;;;;;;946172;149;28078;-81
2021/12/05 07:10:08;;;;;;;3.83;1.70;;;7.00;96.20;;;;;;942333;148;27309;-81
2021/12/05 07:16:11;;;;;;;3.10;1.40;;;7.10;96.30;;;;;;942874;150;27292;-81
2021/12/05 07:20:58;;;;;;;3.77;1.50;;;7.10;96.20;;;;;;946018;148;27354;-81
2021/12/05 07:23:31;;;;;;;4.03;1.80;;;7.10;96.20;;;;;;932262;153;27973;-81
2021/12/05 07:25:47;;;;;;;2.00;1.40;;;7.10;96.20;;;;;;942959;151;27336;-80
2021/12/05 07:42:04;;;;;;;2.60;1.43;;;7.10;96.70;;;;;;945883;151;27367;-80
2021/12/05 07:44:21;;;;;;;4.50;1.50;;;7.20;96.70;;;;;;935463;148;27363;-80
2021/12/05 07:46:47;;;;;;;3.17;1.80;;;7.20;96.70;;;;;;944541;150;27325;-80
2021/12/05 07:49:14;;;;;;;4.60;1.60;;;7.20;96.70;;;;;;943164;151;27321;-80
2021/12/05 07:51:45;;;;;;;3.10;1.60;;;7.20;96.70;;;;;;940965;151;27491;-80
2021/12/05 07:54:14;;;;;;;2.30;1.60;;;7.30;96.80;;;;;;938101;148;27356;-80
2021/12/05 08:15:20;;;;;;;3.07;1.43;;;7.40;96.70;;;;;;948254;151;27435;-80
2021/12/05 08:17:50;;;;;;;2.70;1.30;;;7.40;96.70;;;;;;945568;151;27290;-80
2021/12/05 08:20:09;;;;;;;4.27;1.90;;;7.40;96.70;;;;;;946447;149;27270;-80
2021/12/05 08:22:36;;;;;;;3.57;1.80;;;7.40;96.40;;;;;;949997;148;27325;-80
2021/12/05 08:25:10;;;;;;;3.10;1.63;;;7.40;96.70;;;;;;951103;148;27325;-81
2021/12/05 08:27:29;;;;;;;2.43;2.20;;;7.40;96.70;;;;;;939936;151;27298;-81
2021/12/05 08:30:05;;;;;;;3.43;1.80;;;7.50;96.70;;;;;;945770;149;27330;-81
2021/12/05 08:32:46;;;;;;;3.77;2.40;;;7.50;96.80;;;;;;940813;148;27816;-81
2021/12/05 08:35:08;;;;;;;4.03;1.93;;;7.50;97.00;;;;;;943039;149;27313;-81
2021/12/05 08:43:03;;;;;;;3.57;1.83;;;7.70;97.10;;;;;;944163;148;27459;-81
2021/12/05 09:28:30;;;;;;;4.00;2.43;;;8.90;96.60;;;;;;943896;149;27460;-80
2021/12/05 09:30:44;;;;;;;2.40;1.93;;;9.00;96.20;;;;;;940796;151;27324;-80
2021/12/05 10:03:34;;;;;;;2.37;1.43;;;9.70;94.90;;;;;;959289;149;27359;-81
2021/12/05 10:13:29;;;;;;;1.57;1.40;;;9.70;94.70;;;;;;958918;149;27335;-81
2021/12/05 10:16:10;;;;;;;2.93;1.50;;;9.70;95.10;;;;;;943637;149;27353;-81
2021/12/05 10:37:15;;;;;;;2.97;2.70;;;10.20;93.60;;;;;;954424;149;27307;-81
2021/12/05 10:39:40;;;;;;;3.70;2.37;;;10.20;93.90;;;;;;948269;151;27349;-81
2021/12/05 10:42:43;;;;;;;3.87;3.33;;;10.20;94.00;;;;;;939470;150;27388;-81
2021/12/05 10:45:06;;;;;;;3.00;2.67;;;10.30;94.10;;;;;;945181;151;27642;-81
2021/12/05 10:47:36;;;;;;;4.33;4.00;;;10.40;94.10;;;;;;947503;151;27362;-82
2021/12/05 10:50:30;;;;;;;2.80;2.60;;;10.40;93.90;;;;;;948038;151;27893;-82
2021/12/05 10:53:18;;;;;;;2.90;2.70;;;10.50;93.70;;;;;;934947;151;27396;-81
2021/12/05 10:55:44;;;;;;;2.70;2.20;;;10.60;93.70;;;;;;957016;149;27404;-81
2021/12/05 10:58:11;;;;;;;2.67;2.07;;;10.60;93.50;;;;;;947071;148;27323;-81
2021/12/05 11:00:38;;;;;;;2.33;1.60;;;10.70;93.00;;;;;;946289;151;27444;-81
2021/12/05 11:03:13;;;;;;;2.60;1.73;;;10.70;92.30;;;;;;949498;149;27404;-81
2021/12/05 11:05:41;;;;;;;2.23;1.20;;;10.80;91.90;;;;;;939874;148;27342;-81
2021/12/05 11:08:07;;;;;;;0.87;0.87;;;10.80;91.20;;;;;;951517;151;27295;-81
2021/12/05 11:10:33;;;;;;;1.87;1.00;;;10.70;91.10;;;;;;946058;151;27402;-81
2021/12/05 11:13:00;;;;;;;3.67;1.40;;;10.70;90.90;;;;;;934017;151;27341;-81
2021/12/05 11:15:26;;;;;;;1.83;1.50;;;10.70;91.00;;;;;;948840;148;27257;-81
2021/12/05 11:17:54;;;;;;;2.27;1.70;;;10.70;91.10;;;;;;951136;149;27300;-81
2021/12/05 11:20:29;;;;;;;1.30;1.20;;;10.70;91.30;;;;;;950844;148;27283;-81
2021/12/05 11:22:46;;;;;;;0.80;0.70;;;10.70;91.30;;;;;;949952;151;27217;-81
2021/12/05 11:25:15;;;;;;;1.00;0.90;;;10.70;91.00;;;;;;943939;148;27719;-81
2021/12/05 11:27:44;;;;;;;1.40;1.10;;;10.80;90.90;;;;;;951193;148;27459;-81
2021/12/05 11:30:13;;;;;;;1.57;0.90;;;10.80;90.70;;;;;;946824;150;27401;-80
2021/12/05 11:32:40;;;;;;;0.90;0.90;;;10.80;90.30;;;;;;945575;149;27438;-82
2021/12/05 11:35:19;;;;;;;1.10;1.00;;;10.80;90.00;;;;;;948969;151;27262;-81
2021/12/05 11:37:53;;;;;;;0.97;0.80;;;10.80;90.00;;;;;;950813;149;27319;-82
2021/12/05 11:40:19;;;;;;;3.70;0.93;;;10.80;90.10;;;;;;934933;152;27537;-81
2021/12/05 11:42:55;;;;;;;0.90;0.70;;;10.80;90.30;;;;;;946073;151;27346;-81
2021/12/05 11:45:22;;;;;;;0.60;0.60;;;10.90;90.30;;;;;;949449;150;27465;-82
2021/12/05 11:47:51;;;;;;;1.87;0.70;;;10.90;90.30;;;;;;936458;150;27403;-81
2021/12/05 11:50:18;;;;;;;1.13;0.90;;;11.00;90.20;;;;;;950073;148;27272;-82
2021/12/05 11:52:41;;;;;;;1.20;0.80;;;11.00;90.00;;;;;;946477;147;27756;-81
2021/12/05 11:55:08;;;;;;;0.97;0.60;;;11.10;90.10;;;;;;955084;148;27303;-81
2021/12/05 11:57:35;;;;;;;2.17;1.23;;;11.20;90.00;;;;;;946320;151;27352;-81
2021/12/05 12:00:01;;;;;;;1.80;1.23;;;11.30;89.90;;;;;;942233;151;27220;-81
2021/12/05 12:02:28;;;;;;;3.07;1.50;;;11.30;89.70;;;;;;955836;148;27359;-81
2021/12/05 12:04:57;;;;;;;1.70;1.37;;;11.40;89.20;;;;;;951438;150;27324;-81
2021/12/05 12:07:45;;;;;;;3.73;1.73;;;11.50;88.80;;;;;;952588;146;27346;-81
2021/12/05 12:10:12;;;;;;;2.83;1.43;;;11.50;88.30;;;;;;938094;149;27301;-82
2021/12/05 12:12:38;;;;;;;2.77;2.10;;;11.60;87.90;;;;;;950663;148;27362;-82
2021/12/05 12:15:05;;;;;;;4.60;1.90;;;11.60;87.70;;;;;;942753;151;27436;-81
2021/12/05 12:17:32;;;;;;;1.27;1.13;;;11.60;87.40;;;;;;934894;151;27430;-81
2021/12/05 12:19:58;;;;;;;1.00;0.83;;;11.70;87.10;;;;;;944186;149;27379;-81
2021/12/05 12:22:26;;;;;;;3.20;2.17;;;11.70;87.10;;;;;;946951;148;27316;-81
2021/12/05 12:24:51;;;;;;;2.67;1.80;;;11.70;86.90;;;;;;947695;146;27731;-81
2021/12/05 12:27:18;;;;;;;3.10;1.20;;;11.80;86.20;;;;;;952423;146;27347;-81
2021/12/05 12:29:45;;;;;;;1.53;1.40;;;11.80;85.50;;;;;;951568;147;27280;-81
2021/12/05 12:32:12;;;;;;;1.70;1.50;;;11.70;84.60;;;;;;947439;150;27309;-81
2021/12/05 12:34:38;;;;;;;1.03;1.03;;;11.70;83.90;;;;;;941262;150;27428;-81
2021/12/05 12:37:06;;;;;;;1.50;1.40;;;11.60;82.80;;;;;;944782;146;27223;-81
2021/12/05 12:39:37;;;;;;;1.30;1.17;;;11.50;83.50;;;;;;932201;151;27331;-82
2021/12/05 12:42:06;;;;;;;3.43;1.30;;;11.40;83.60;;;;;;945417;148;27339;-82
2021/12/05 12:44:32;;;;;;;1.50;1.07;;;11.40;83.50;;;;;;948072;148;27271;-82
2021/12/05 12:46:59;;;;;;;1.20;0.90;;;11.30;83.60;;;;;;928416;151;27296;-82
2021/12/05 12:49:32;;;;;;;1.33;1.30;;;11.30;84.10;;;;;;933655;150;27313;-82
2021/12/05 12:52:04;;;;;;;2.00;1.40;;;11.30;84.20;;;;;;957885;149;27320;-81
2021/12/05 12:54:52;;;;;;;1.07;0.90;;;11.30;84.40;;;;;;955498;149;27446;-81
2021/12/05 12:57:24;;;;;;;0.90;0.90;;;11.20;84.20;;;;;;957329;149;27279;-82
2021/12/05 12:59:58;;;;;;;2.87;1.33;;;11.20;83.90;;;;;;955330;149;27380;-82
2021/12/05 13:02:48;;;;;;;2.67;1.50;;;11.20;83.80;;;;;;960588;147;27375;-82
2021/12/05 13:05:16;;;;;;;2.33;1.80;;;11.20;83.70;;;;;;951730;148;27473;-82
2021/12/05 13:10:39;;;;;;;1.27;1.23;;;11.20;83.80;;;;;;963677;147;27288;-82
2021/12/05 13:13:05;;;;;;;2.00;1.20;;;11.10;83.80;;;;;;965261;147;27296;-81
2021/12/05 13:15:35;;;;;;;1.83;1.27;;;11.10;83.70;;;;;;957177;147;27275;-81
2021/12/05 13:18:13;;;;;;;1.50;1.27;;;11.10;83.60;;;;;;952406;148;27774;-81
2021/12/05 13:20:43;;;;;;;1.47;1.37;;;11.10;83.50;;;;;;950415;148;27353;-82
2021/12/05 13:23:15;;;;;;;2.27;1.07;;;11.00;83.30;;;;;;935805;151;27293;-82
2021/12/05 13:26:05;;;;;;;1.90;1.40;;;11.00;83.30;;;;;;948274;151;27454;-81
2021/12/05 13:28:38;;;;;;;1.80;1.30;;;11.00;83.40;;;;;;956439;146;27285;-81
2021/12/05 13:31:23;;;;;;;1.60;1.17;;;10.90;83.30;;;;;;952320;148;27385;-81
2021/12/05 13:33:49;;;;;;;1.23;1.07;;;10.90;83.30;;;;;;948367;146;27386;-81
2021/12/05 13:36:28;;;;;;;1.20;1.00;;;10.90;83.10;;;;;;951506;149;27292;-81
2021/12/05 13:38:54;;;;;;;2.93;1.30;;;10.80;83.00;;;;;;941340;149;27406;-81
2021/12/05 13:41:21;;;;;;;3.10;1.57;;;10.80;83.30;;;;;;946763;149;27315;-81
2021/12/05 13:44:01;;;;;;;1.40;1.30;;;10.80;83.70;;;;;;941480;151;27418;-81
2021/12/05 13:46:32;;;;;;;2.73;2.40;;;10.80;83.90;;;;;;943745;151;27306;-80
2021/12/05 13:48:58;;;;;;;1.70;1.47;;;10.80;84.10;;;;;;929685;149;27362;-80
2021/12/05 13:51:26;;;;;;;1.23;0.93;;;10.70;83.90;;;;;;934624;149;27364;-80
2021/12/05 13:53:52;;;;;;;1.43;1.20;;;10.80;83.60;;;;;;952767;146;27385;-80
2021/12/05 13:56:21;;;;;;;2.33;1.77;;;10.70;83.30;;;;;;932886;149;27355;-81
2021/12/05 13:58:48;;;;;;;1.50;1.40;;;10.70;83.20;;;;;;940017;151;27625;-81
2021/12/05 14:01:29;;;;;;;1.23;1.20;;;10.70;83.20;;;;;;942597;151;28015;-81
2021/12/05 14:03:59;;;;;;;1.27;1.17;;;10.70;83.10;;;;;;941665;148;27442;-81
2021/12/05 14:06:34;;;;;;;1.20;1.20;;;10.70;83.20;;;;;;944049;148;27341;-81
2021/12/05 14:09:07;;;;;;;1.33;1.23;;;10.70;83.20;;;;;;940492;151;28356;-82
2021/12/05 14:11:33;;;;;;;2.13;1.13;;;10.70;83.10;;;;;;948336;148;27350;-81
2021/12/05 14:14:02;;;;;;;2.37;1.87;;;10.60;83.00;;;;;;946098;148;27337;-81
2021/12/05 14:16:35;;;;;;;1.33;1.23;;;10.60;82.90;;;;;;957355;148;27430;-81
2021/12/05 14:19:01;;;;;;;2.70;2.10;;;10.60;82.70;;;;;;941475;148;27418;-81
2021/12/05 14:21:28;;;;;;;2.00;1.90;;;10.60;82.80;;;;;;950960;148;27327;-81
2021/12/05 14:23:54;;;;;;;2.40;2.20;;;10.60;82.80;;;;;;950630;148;27344;-81
2021/12/05 14:26:21;;;;;;;4.03;3.53;;;10.60;83.00;;;;;;949891;149;27394;-81
2021/12/05 14:28:59;;;;;;;3.47;2.20;;;10.60;83.00;;;;;;936358;149;27324;-81
2021/12/05 14:31:26;;;;;;;2.37;2.17;;;10.60;82.80;;;;;;938267;151;28582;-81
2021/12/05 14:33:53;;;;;;;2.70;2.50;;;10.50;82.80;;;;;;944944;150;27298;-81
2021/12/05 14:36:28;;;;;;;2.50;2.30;;;10.50;82.50;;;;;;944257;151;27429;-80
2021/12/05 14:39:28;;;;;;;1.70;1.60;;;10.50;82.50;;;;;;944047;148;27363;-81
2021/12/05 14:42:01;;;;;;;2.27;2.07;;;10.50;82.50;;;;;;947016;148;27345;-81
2021/12/05 14:44:27;;;;;;;2.77;2.50;;;10.50;82.60;;;;;;950823;148;27411;-81
2021/12/05 14:46:56;;;;;;;1.90;1.60;;;10.50;82.80;;;;;;949790;148;27317;-81
2021/12/05 14:49:23;;;;;;;2.20;1.70;;;10.50;82.90;;;;;;937259;151;27452;-81
2021/12/05 14:51:50;;;;;;;1.67;1.57;;;10.50;82.90;;;;;;941203;150;27409;-81
2021/12/05 14:54:25;;;;;;;10.47;7.83;;;10.50;82.80;;;;;;951942;149;27281;-81
2021/12/05 14:56:52;;;;;;;2.83;2.40;;;10.50;82.80;;;;;;938132;150;27322;-81
2021/12/05 14:59:18;;;;;;;5.13;3.60;;;10.50;82.60;;;;;;946087;148;27533;-81
2021/12/05 15:01:46;;;;;;;2.67;2.43;;;10.50;82.20;;;;;;944530;151;27740;-81
2021/12/05 15:04:11;;;;;;;2.07;1.90;;;10.50;82.00;;;;;;941817;148;27355;-81
2021/12/05 15:06:39;;;;;;;1.70;1.50;;;10.50;81.90;;;;;;940532;148;27334;-81
2021/12/05 15:09:04;;;;;;;1.10;1.07;;;10.50;81.50;;;;;;943192;149;27321;-81
2021/12/05 15:11:31;;;;;;;1.47;1.37;;;10.40;81.20;;;;;;944407;149;27292;-81
2021/12/05 15:14:07;;;;;;;1.23;1.20;;;10.40;81.20;;;;;;956139;148;27300;-81
2021/12/05 15:16:33;;;;;;;1.57;1.40;;;10.30;81.20;;;;;;946386;148;27505;-81
2021/12/05 15:19:00;;;;;;;1.57;1.43;;;10.30;81.10;;;;;;963825;146;27351;-81
2021/12/05 15:21:27;;;;;;;1.83;1.53;;;10.20;81.00;;;;;;951842;148;27411;-81
2021/12/05 15:23:53;;;;;;;1.43;1.33;;;10.10;80.90;;;;;;958600;146;27247;-81
2021/12/05 15:26:20;;;;;;;1.50;1.40;;;10.10;80.80;;;;;;951131;148;27284;-81
2021/12/05 15:28:47;;;;;;;1.70;1.23;;;9.90;80.60;;;;;;956095;147;27290;-81
2021/12/05 15:31:13;;;;;;;1.90;1.50;;;9.90;80.50;;;;;;945937;147;27374;-81
2021/12/05 15:33:40;;;;;;;2.83;2.53;;;9.80;80.50;;;;;;950688;146;27404;-82
2021/12/05 15:36:06;;;;;;;14.37;9.23;;;9.70;80.60;;;;;;960787;146;27321;-82
2021/12/05 15:38:34;;;;;;;3.10;2.80;;;9.60;80.60;;;;;;945789;149;27422;-81
2021/12/05 15:40:59;;;;;;;2.30;1.70;;;9.40;80.70;;;;;;948383;148;27422;-81
2021/12/05 15:43:26;;;;;;;2.57;1.60;;;9.30;80.90;;;;;;946430;148;27370;-81
2021/12/05 15:45:52;;;;;;;1.97;1.70;;;9.30;81.10;;;;;;947220;148;27405;-81
2021/12/05 15:48:22;;;;;;;1.77;1.40;;;9.20;81.30;;;;;;949764;148;27401;-81
2021/12/05 15:50:51;;;;;;;1.30;1.20;;;9.10;81.50;;;;;;949014;147;27866;-82
2021/12/05 15:53:15;;;;;;;1.70;1.60;;;9.00;81.60;;;;;;956728;147;27315;-82
2021/12/05 15:55:41;;;;;;;2.17;1.77;;;9.00;81.90;;;;;;936712;150;27343;-82
2021/12/05 15:58:20;;;;;;;1.70;1.60;;;8.90;82.00;;;;;;949305;148;27262;-82
2021/12/05 16:00:53;;;;;;;3.70;3.10;;;8.80;82.10;;;;;;949252;147;27451;-82
2021/12/05 16:03:24;;;;;;;22.97;13.80;;;8.80;82.30;;;;;;942972;148;27335;-81
2021/12/05 16:05:48;;;;;;;11.33;7.63;;;8.70;82.40;;;;;;936715;151;27382;-81
2021/12/05 16:08:15;;;;;;;8.80;5.77;;;8.70;82.60;;;;;;941744;151;27439;-81
2021/12/05 16:10:41;;;;;;;3.90;3.40;;;8.70;82.70;;;;;;942572;151;27372;-81
2021/12/05 16:13:10;;;;;;;4.83;3.80;;;8.60;82.80;;;;;;946914;148;27325;-81
2021/12/05 16:15:39;;;;;;;3.83;3.37;;;8.60;83.00;;;;;;937314;149;27301;-81
2021/12/05 16:18:05;;;;;;;3.10;2.43;;;8.60;83.20;;;;;;945662;149;27391;-81
2021/12/05 16:20:46;;;;;;;2.70;2.50;;;8.50;83.30;;;;;;945112;150;27439;-81
2021/12/05 16:23:19;;;;;;;3.20;2.70;;;8.50;83.50;;;;;;936092;149;27434;-81
2021/12/05 16:26:06;;;;;;;3.47;3.17;;;8.50;83.80;;;;;;944305;148;27457;-81
2021/12/05 16:28:41;;;;;;;3.30;3.00;;;8.40;83.80;;;;;;939643;148;27338;-80
2021/12/05 16:31:16;;;;;;;3.27;2.97;;;8.40;83.90;;;;;;942262;148;27405;-80
2021/12/05 16:33:43;;;;;;;3.20;3.00;;;8.40;84.00;;;;;;949507;148;27355;-80
2021/12/05 16:36:09;;;;;;;3.30;3.00;;;8.30;84.10;;;;;;946824;151;27395;-80
2021/12/05 16:38:39;;;;;;;3.63;3.33;;;8.30;84.20;;;;;;929379;150;27323;-80
2021/12/05 16:41:27;;;;;;;4.03;3.73;;;8.30;84.40;;;;;;950984;147;27801;-80
2021/12/05 16:44:02;;;;;;;6.00;3.33;;;8.30;84.40;;;;;;948682;148;27300;-80
2021/12/05 16:46:31;;;;;;;3.60;3.27;;;8.20;84.40;;;;;;950532;149;27362;-81
2021/12/05 16:48:58;;;;;;;6.77;6.03;;;8.20;84.60;;;;;;948378;147;27353;-81
2021/12/05 16:51:31;;;;;;;5.50;5.00;;;8.10;84.70;;;;;;937665;148;27788;-80
2021/12/05 16:54:01;;;;;;;4.87;4.47;;;8.10;84.00;;;;;;946506;151;27297;-81
2021/12/05 16:56:33;;;;;;;3.97;3.47;;;8.10;85.00;;;;;;945059;151;27281;-81
2021/12/05 16:59:05;;;;;;;3.53;3.23;;;8.00;85.20;;;;;;938352;151;27413;-81
2021/12/05 17:01:32;;;;;;;3.90;3.50;;;8.00;85.30;;;;;;944567;148;27458;-81
2021/12/05 17:03:58;;;;;;;4.57;3.40;;;8.00;85.60;;;;;;938325;149;27298;-81
2021/12/05 17:06:25;;;;;;;6.50;3.47;;;8.00;85.80;;;;;;945845;149;27918;-81
2021/12/05 17:08:53;;;;;;;4.93;4.07;;;7.90;85.90;;;;;;942430;151;27463;-81
2021/12/05 17:11:18;;;;;;;4.13;3.73;;;7.90;85.90;;;;;;942042;150;27348;-81
2021/12/05 17:13:47;;;;;;;4.90;3.43;;;7.90;86.00;;;;;;940723;151;27375;-81
2021/12/05 17:16:17;;;;;;;4.07;3.67;;;7.90;86.20;;;;;;946507;149;27303;-81
2021/12/05 17:18:43;;;;;;;3.73;3.30;;;7.90;86.30;;;;;;938059;151;27332;-81
2021/12/05 17:21:13;;;;;;;4.43;4.03;;;7.90;86.30;;;;;;943567;147;27931;-81
2021/12/05 17:23:42;;;;;;;5.03;4.23;;;8.00;86.40;;;;;;942782;148;27892;-81
2021/12/05 17:26:09;;;;;;;4.10;3.70;;;8.00;86.50;;;;;;943294;148;27817;-81
2021/12/05 17:28:44;;;;;;;5.73;3.90;;;8.00;86.80;;;;;;942931;148;27399;-81
2021/12/05 17:31:11;;;;;;;4.30;3.90;;;8.00;86.70;;;;;;945943;148;27302;-81
2021/12/05 17:33:37;;;;;;;7.80;5.43;;;8.00;86.70;;;;;;945679;148;27338;-81
2021/12/05 17:36:34;;;;;;;6.37;5.13;;;8.00;86.70;;;;;;941464;151;27850;-81
2021/12/05 17:39:09;;;;;;;6.27;4.93;;;8.00;86.90;;;;;;942018;148;27482;-80
2021/12/05 17:41:36;;;;;;;6.73;4.93;;;8.00;86.90;;;;;;946584;149;28102;-82
2021/12/05 17:44:03;;;;;;;6.20;4.17;;;8.00;87.00;;;;;;942840;149;27807;-81
2021/12/05 17:46:30;;;;;;;4.10;3.70;;;8.00;87.10;;;;;;953471;147;27743;-81
2021/12/05 17:48:56;;;;;;;4.23;3.60;;;8.00;87.10;;;;;;948111;146;27308;-81
2021/12/05 17:51:27;;;;;;;5.20;4.60;;;8.00;87.10;;;;;;947504;148;27404;-81
2021/12/05 17:53:49;;;;;;;4.97;4.40;;;8.00;87.10;;;;;;943971;148;27955;-81